Time;durP1;ratioP1;P1;durP2;ratioP2;P2;SDS_P1;SDS_P2;PMS_P1;PMS_P2;Temp;Humidity;BMP_temperature;BMP_pressure;BME280_temperature;BME280_humidity;BME280_pressure;Samples;Min_cycle;Max_cycle;Signal;HPM_P1;HPM_P2
2020/12/19 00:00:06;;;;;;;14.27;8.60;;;4.50;99.90;;;;;;6188744;23;19997;-88
2020/12/19 00:02:32;;;;;;;16.03;9.37;;;4.50;99.90;;;;;;6190629;23;20009;-88
2020/12/19 00:04:58;;;;;;;14.63;9.03;;;4.50;99.90;;;;;;6190552;23;20040;-89
2020/12/19 00:07:24;;;;;;;15.03;8.50;;;4.50;99.90;;;;;;6190624;23;20004;-89
2020/12/19 00:09:53;;;;;;;14.37;8.87;;;4.50;99.90;;;;;;6192254;23;20009;-88
2020/12/19 00:12:22;;;;;;;18.10;10.20;;;4.40;99.90;;;;;;6191229;23;20009;-88
2020/12/19 00:14:48;;;;;;;17.13;10.10;;;4.40;99.90;;;;;;6191696;23;20004;-89
2020/12/19 00:17:14;;;;;;;20.23;10.50;;;4.40;99.90;;;;;;6191501;23;20016;-90
2020/12/19 00:19:43;;;;;;;17.33;10.37;;;4.30;99.90;;;;;;6192183;23;20035;-89
2020/12/19 00:22:08;;;;;;;15.60;10.23;;;4.40;99.90;;;;;;6192454;23;20005;-89
2020/12/19 00:24:34;;;;;;;17.70;10.17;;;4.30;99.90;;;;;;6192144;23;20051;-88
2020/12/19 00:27:00;;;;;;;15.97;9.93;;;4.30;99.90;;;;;;6191540;23;20005;-89
2020/12/19 00:29:25;;;;;;;18.27;10.10;;;4.20;99.90;;;;;;6193535;23;20008;-90
2020/12/19 00:31:51;;;;;;;16.90;9.03;;;4.20;99.90;;;;;;6193337;23;20031;-89
2020/12/19 00:34:18;;;;;;;15.83;9.63;;;4.20;99.90;;;;;;6193646;23;20004;-89
2020/12/19 00:36:44;;;;;;;17.20;9.40;;;4.20;99.90;;;;;;6193874;23;20096;-90
2020/12/19 00:39:10;;;;;;;17.70;10.13;;;4.20;99.90;;;;;;6193526;23;20344;-89
2020/12/19 00:41:36;;;;;;;16.40;9.73;;;4.20;99.90;;;;;;6193555;23;20072;-90
2020/12/19 00:44:07;;;;;;;16.90;9.83;;;4.20;99.90;;;;;;6193638;23;20043;-89
2020/12/19 00:46:33;;;;;;;18.58;10.68;;;4.20;99.90;;;;;;6192729;23;20000;-90
2020/12/19 00:48:58;;;;;;;17.50;10.63;;;4.10;99.90;;;;;;6194796;23;20067;-89
2020/12/19 00:51:24;;;;;;;17.17;10.50;;;4.10;99.90;;;;;;6193843;23;20017;-89
2020/12/19 00:53:51;;;;;;;17.20;10.53;;;4.10;99.90;;;;;;6192476;23;20072;-89
2020/12/19 00:56:21;;;;;;;16.73;10.00;;;4.10;99.90;;;;;;6193935;23;20004;-90
2020/12/19 00:58:48;;;;;;;17.03;10.07;;;4.10;99.90;;;;;;6193834;23;20001;-89
2020/12/19 01:01:15;;;;;;;17.40;10.87;;;4.10;99.90;;;;;;6193399;23;20024;-89
2020/12/19 06:03:27;;;;;;;14.40;8.40;;;2.80;99.90;;;;;;6218847;23;20525;-89
2020/12/19 06:05:57;;;;;;;13.10;8.47;;;2.70;99.90;;;;;;6191042;23;20011;-89
2020/12/19 06:08:31;;;;;;;15.23;8.57;;;2.70;99.90;;;;;;6191645;23;20285;-89
2020/12/19 06:11:01;;;;;;;16.90;9.20;;;2.70;99.90;;;;;;6195620;23;20000;-90
2020/12/19 06:13:35;;;;;;;16.00;8.70;;;2.70;99.90;;;;;;6218563;23;20033;-90
2020/12/19 06:16:16;;;;;;;14.60;8.50;;;2.60;99.90;;;;;;6219754;23;20272;-90
2020/12/19 06:18:48;;;;;;;14.83;9.43;;;2.60;99.90;;;;;;6230864;23;20005;-91
2020/12/19 06:21:20;;;;;;;16.73;10.00;;;2.60;99.90;;;;;;6238393;23;20016;-91
2020/12/19 06:24:04;;;;;;;14.43;8.57;;;2.60;99.90;;;;;;6222434;23;20004;-90
2020/12/19 06:26:43;;;;;;;15.10;9.33;;;2.60;99.90;;;;;;6217059;23;20012;-90
2020/12/19 06:29:10;;;;;;;15.53;9.60;;;2.50;99.90;;;;;;6217178;23;20000;-90
2020/12/19 06:31:43;;;;;;;14.83;9.60;;;2.50;99.90;;;;;;6217326;23;20008;-90
2020/12/19 06:34:13;;;;;;;14.43;8.47;;;2.50;99.90;;;;;;6217069;23;20079;-90
2020/12/19 06:36:47;;;;;;;13.77;8.90;;;2.60;99.90;;;;;;6212435;23;20032;-90
2020/12/19 06:39:18;;;;;;;15.67;8.60;;;2.60;99.90;;;;;;6211670;23;20035;-90
2020/12/19 06:41:55;;;;;;;14.17;8.90;;;2.60;99.90;;;;;;6211880;23;20019;-90
2020/12/19 06:44:31;;;;;;;15.90;8.83;;;2.60;99.90;;;;;;6212245;23;20051;-90
2020/12/19 06:47:01;;;;;;;14.63;9.10;;;2.60;99.90;;;;;;6211598;23;20027;-90
2020/12/19 06:49:32;;;;;;;14.37;9.07;;;2.60;99.90;;;;;;6211792;23;20007;-88
2020/12/19 06:52:10;;;;;;;14.90;9.13;;;2.50;99.90;;;;;;6212075;23;20008;-90
2020/12/19 06:54:44;;;;;;;14.87;9.57;;;2.50;99.90;;;;;;6212294;23;20063;-90
2020/12/19 06:57:25;;;;;;;16.57;9.40;;;2.40;99.90;;;;;;6211429;23;20004;-90
2020/12/19 06:59:58;;;;;;;16.53;9.07;;;2.50;99.90;;;;;;6211048;23;20454;-89
2020/12/19 07:02:24;;;;;;;;;;;2.40;99.90;;;;;;6212310;23;20031;-90
2020/12/19 07:04:56;;;;;;;13.00;8.90;;;2.40;99.90;;;;;;6211889;23;19900;-90
2020/12/19 07:07:33;;;;;;;16.13;8.98;;;2.40;99.90;;;;;;6215336;23;20001;-91
2020/12/19 07:10:07;;;;;;;15.90;9.40;;;2.40;99.90;;;;;;6212332;23;20004;-90
2020/12/19 07:12:38;;;;;;;13.87;8.67;;;2.50;99.90;;;;;;6213010;23;20004;-92
2020/12/19 07:15:09;;;;;;;14.80;9.00;;;2.40;99.90;;;;;;6215168;23;20017;-91
2020/12/19 07:17:59;;;;;;;16.53;9.10;;;2.50;99.90;;;;;;6215977;23;20009;-92
2020/12/19 07:20:34;;;;;;;14.87;8.87;;;2.40;99.90;;;;;;6212561;23;20389;-92
2020/12/19 07:23:00;;;;;;;14.80;8.90;;;2.40;99.90;;;;;;6211872;23;20001;-89
2020/12/19 07:25:26;;;;;;;14.40;9.47;;;2.40;99.90;;;;;;6212412;23;20346;-90
2020/12/19 07:27:58;;;;;;;14.50;9.80;;;2.40;99.90;;;;;;6208314;23;20000;-90
2020/12/19 07:30:23;;;;;;;15.80;9.18;;;2.40;99.90;;;;;;6212803;23;20036;-93
2020/12/19 07:32:57;;;;;;;14.93;9.00;;;2.40;99.90;;;;;;6217132;23;20035;-94
2020/12/19 07:35:22;;;;;;;16.10;10.10;;;2.40;99.90;;;;;;6218261;23;20455;-89
2020/12/19 07:38:07;;;;;;;14.90;9.10;;;2.40;99.90;;;;;;6214773;23;20077;-94
2020/12/19 07:40:36;;;;;;;14.97;8.93;;;2.40;99.90;;;;;;6216403;23;20159;-93
2020/12/19 07:43:15;;;;;;;14.13;8.73;;;2.40;99.90;;;;;;6214116;23;20088;-93
2020/12/19 07:45:49;;;;;;;15.10;8.80;;;2.40;99.90;;;;;;6213048;23;20004;-91
2020/12/19 07:48:25;;;;;;;14.13;8.53;;;2.50;99.90;;;;;;6211676;23;20005;-93
2020/12/19 07:50:54;;;;;;;15.37;9.03;;;2.50;99.90;;;;;;6216445;23;20012;-93
2020/12/19 07:53:23;;;;;;;12.00;8.30;;;2.50;99.90;;;;;;6215802;23;20024;-94
2020/12/19 07:56:02;;;;;;;14.67;9.00;;;2.50;99.90;;;;;;6214403;23;20012;-93
2020/12/19 07:58:36;;;;;;;20.67;9.50;;;2.50;99.90;;;;;;6210357;23;20009;-92
2020/12/19 08:01:13;;;;;;;16.20;9.50;;;2.60;99.90;;;;;;6211960;23;20005;-93
2020/12/19 10:13:58;;;;;;;14.20;8.40;;;4.70;99.90;;;;;;6166083;23;20033;31
2020/12/19 10:16:51;;;;;;;12.93;7.93;;;4.80;99.90;;;;;;6096704;23;20053;-93
2020/12/19 10:19:18;;;;;;;14.95;8.02;;;5.00;99.90;;;;;;6094653;23;20038;-92
2020/12/19 10:21:59;;;;;;;12.63;8.10;;;5.00;99.90;;;;;;6110606;23;20074;-92
2020/12/19 10:24:31;;;;;;;12.40;8.00;;;5.10;99.90;;;;;;6123145;23;20012;-92
2020/12/19 10:27:03;;;;;;;11.93;7.67;;;5.20;99.90;;;;;;6123622;23;20022;-92
2020/12/19 10:29:39;;;;;;;11.40;7.28;;;5.30;99.90;;;;;;6122252;23;20033;-91
2020/12/19 10:32:30;;;;;;;14.57;8.13;;;5.40;99.90;;;;;;6122510;23;20100;-90
2020/12/19 10:35:12;;;;;;;12.63;7.43;;;5.40;99.90;;;;;;6122779;23;20028;-91
2020/12/19 10:37:49;;;;;;;7.93;5.35;;;5.50;99.90;;;;;;6125352;23;20009;-91
2020/12/19 10:40:16;;;;;;;12.87;7.90;;;5.60;99.90;;;;;;6126934;23;20071;-87
2020/12/19 10:42:43;;;;;;;11.13;7.30;;;5.80;99.90;;;;;;6122106;23;20492;-92
2020/12/19 10:45:09;;;;;;;13.80;7.23;;;6.00;99.90;;;;;;6123866;23;20013;-93
2020/12/19 10:50:28;;;;;;;11.25;7.43;;;6.40;99.90;;;;;;6142743;23;20016;-94
2020/12/19 10:52:55;;;;;;;12.60;7.07;;;6.60;99.90;;;;;;6143932;23;20017;-94
2020/12/19 10:55:39;;;;;;;12.00;7.00;;;6.70;99.90;;;;;;6143962;23;20372;-93
2020/12/19 10:58:55;;;;;;;11.30;7.33;;;6.90;99.90;;;;;;6170184;23;20024;-95
2020/12/19 11:04:33;;;;;;;11.33;6.70;;;7.30;99.90;;;;;;6134233;23;20017;-92
2020/12/19 11:07:05;;;;;;;11.20;7.17;;;7.30;99.90;;;;;;6210868;23;20378;-93
2020/12/19 11:09:38;;;;;;;;;;;7.40;99.90;;;;;;6186409;23;20004;-91
2020/12/19 11:12:09;;;;;;;10.20;6.83;;;7.50;99.90;;;;;;6236075;23;20282;-94
2020/12/19 11:14:40;;;;;;;11.50;7.13;;;7.50;99.90;;;;;;6189415;23;20032;-93
2020/12/19 11:17:15;;;;;;;12.83;7.23;;;7.60;99.90;;;;;;6186499;23;20000;-93
2020/12/19 11:19:41;;;;;;;11.73;6.90;;;7.60;99.90;;;;;;6183609;23;20000;-96
2020/12/19 11:29:53;;;;;;;13.10;6.97;;;7.90;99.90;;;;;;6236519;22;20020;-88
2020/12/19 11:32:19;;;;;;;33.67;15.53;;;8.00;99.90;;;;;;6187241;23;20009;-87
2020/12/19 11:34:44;;;;;;;11.73;7.53;;;8.20;99.90;;;;;;6214256;23;20497;-89
2020/12/19 11:37:15;;;;;;;14.17;7.70;;;8.30;99.90;;;;;;6214429;23;20005;-88
2020/12/19 11:39:40;;;;;;;10.83;7.30;;;8.40;99.90;;;;;;6211625;23;20005;-88
2020/12/19 11:42:06;;;;;;;10.70;6.27;;;8.50;99.90;;;;;;6213128;23;20013;-88
2020/12/19 11:44:31;;;;;;;12.07;6.70;;;8.50;99.90;;;;;;6213451;23;20011;-89
2020/12/19 11:46:57;;;;;;;10.43;6.87;;;8.50;99.90;;;;;;6215125;23;19997;-89
2020/12/19 11:49:22;;;;;;;9.63;6.40;;;8.70;99.90;;;;;;6212874;23;20011;-89
2020/12/19 11:51:48;;;;;;;12.57;7.23;;;8.70;99.90;;;;;;6213019;23;20009;-89
2020/12/19 11:54:14;;;;;;;10.67;7.10;;;8.80;99.90;;;;;;6212779;23;20059;-89
2020/12/19 11:56:39;;;;;;;11.50;7.50;;;8.90;99.90;;;;;;6213476;23;20012;-89
2020/12/19 11:59:05;;;;;;;13.63;7.13;;;9.00;99.90;;;;;;6213381;23;20412;-89
2020/12/19 12:01:31;;;;;;;12.83;7.17;;;9.10;99.90;;;;;;6215702;23;20011;-88
2020/12/19 12:03:57;;;;;;;11.23;7.13;;;9.10;99.90;;;;;;6212683;23;20008;-87
2020/12/19 12:06:31;;;;;;;15.23;7.20;;;9.20;99.90;;;;;;6212619;23;20074;-88
2020/12/19 12:08:58;;;;;;;10.93;7.13;;;9.30;99.90;;;;;;6214044;23;20001;-87
2020/12/19 12:11:25;;;;;;;12.33;7.60;;;9.40;99.90;;;;;;6215472;23;20001;-88
2020/12/19 12:13:51;;;;;;;12.03;7.87;;;9.50;99.90;;;;;;6214267;23;20100;-88
2020/12/19 12:16:16;;;;;;;13.23;7.57;;;9.70;99.90;;;;;;6213260;23;20015;-88
2020/12/19 12:18:43;;;;;;;11.77;6.97;;;9.70;99.90;;;;;;6215620;23;20086;-87
2020/12/19 12:21:08;;;;;;;13.23;6.83;;;9.70;99.90;;;;;;6217165;23;20047;-87
2020/12/19 12:23:34;;;;;;;10.67;6.47;;;9.70;99.90;;;;;;6221315;22;19997;-87
2020/12/19 12:25:59;;;;;;;9.73;6.00;;;9.70;99.90;;;;;;6238997;22;20007;-87
2020/12/19 12:28:25;;;;;;;12.30;5.37;;;9.70;99.90;;;;;;6219759;23;20067;-87
2020/12/19 12:30:51;;;;;;;8.20;5.20;;;9.70;99.90;;;;;;6215664;23;20020;-88
2020/12/19 12:33:16;;;;;;;9.03;5.47;;;9.80;99.90;;;;;;6215326;23;20000;-88
2020/12/19 12:35:42;;;;;;;9.80;4.77;;;9.90;99.90;;;;;;6215505;23;20012;-90
2020/12/19 12:38:07;;;;;;;8.50;5.20;;;9.90;99.90;;;;;;6214318;23;20013;-87
2020/12/19 12:40:33;;;;;;;7.57;5.17;;;10.10;99.90;;;;;;6214825;23;20012;-87
2020/12/19 12:42:59;;;;;;;8.40;4.67;;;10.10;99.90;;;;;;6216070;23;20079;-88
2020/12/19 12:45:24;;;;;;;9.73;4.57;;;10.20;99.90;;;;;;6209790;23;20004;-88
2020/12/19 12:47:51;;;;;;;7.75;4.25;;;10.30;99.90;;;;;;6215128;23;20027;-88
2020/12/19 12:50:18;;;;;;;10.63;5.40;;;10.50;99.90;;;;;;6214510;23;20383;-88
2020/12/19 12:52:43;;;;;;;9.90;5.22;;;10.60;99.90;;;;;;6215038;23;20008;-88
2020/12/19 12:55:09;;;;;;;9.25;5.15;;;10.60;99.90;;;;;;6213741;23;20084;-87
2020/12/19 12:57:35;;;;;;;9.35;4.68;;;10.60;99.90;;;;;;6215671;23;20063;-88
2020/12/19 13:00:01;;;;;;;10.48;4.65;;;10.60;99.90;;;;;;6213452;23;20880;-86
2020/12/19 13:02:27;;;;;;;9.27;4.30;;;10.70;99.90;;;;;;6212913;23;20004;-86
2020/12/19 13:04:52;;;;;;;7.25;4.25;;;10.80;99.90;;;;;;6212010;23;20001;-87
2020/12/19 13:07:19;;;;;;;8.10;3.65;;;10.80;99.90;;;;;;6213750;23;20060;-87
2020/12/19 13:09:45;;;;;;;8.80;4.80;;;10.80;99.90;;;;;;6213728;23;20001;-87
2020/12/19 13:12:10;;;;;;;7.00;4.18;;;10.90;99.90;;;;;;6215876;23;20101;-87
2020/12/19 13:14:36;;;;;;;10.13;3.83;;;10.80;99.90;;;;;;6214399;23;20020;-88
2020/12/19 13:17:03;;;;;;;6.45;3.80;;;10.80;99.90;;;;;;6214254;23;20043;-88
2020/12/19 13:19:29;;;;;;;6.55;3.80;;;10.70;99.90;;;;;;6214777;23;20054;-88
2020/12/19 13:21:55;;;;;;;7.28;3.40;;;10.80;99.90;;;;;;6213717;23;20008;-87
2020/12/19 13:24:20;;;;;;;9.70;4.15;;;10.80;99.90;;;;;;6214234;23;20001;-88
2020/12/19 13:26:47;;;;;;;6.85;3.00;;;10.90;99.90;;;;;;6214169;23;20005;-88
2020/12/19 13:29:13;;;;;;;7.18;3.53;;;11.10;99.90;;;;;;6214302;23;20005;-88
2020/12/19 13:31:46;;;;;;;6.50;3.08;;;11.10;99.90;;;;;;6235818;22;20076;-86
2020/12/19 13:34:12;;;;;;;7.90;3.17;;;11.20;99.90;;;;;;6234899;23;20047;-88
2020/12/19 13:36:39;;;;;;;6.60;3.15;;;11.20;99.90;;;;;;6219816;23;20009;-88
2020/12/19 13:39:09;;;;;;;7.05;2.55;;;11.20;99.90;;;;;;6214367;23;20005;-87
2020/12/19 13:41:36;;;;;;;6.78;3.10;;;11.10;99.90;;;;;;6214206;23;20041;-87
2020/12/19 13:44:02;;;;;;;9.35;3.00;;;11.20;99.90;;;;;;6217152;23;19997;-87
2020/12/19 13:46:32;;;;;;;6.10;2.47;;;11.20;99.90;;;;;;6210782;23;20032;-86
2020/12/19 13:48:57;;;;;;;8.98;4.05;;;11.00;99.90;;;;;;6212743;23;20009;-86
2020/12/19 13:51:32;;;;;;;4.32;2.58;;;11.00;99.90;;;;;;6213683;23;20032;-87
2020/12/19 13:53:58;;;;;;;5.97;2.20;;;10.90;99.90;;;;;;6215271;23;20008;-86
2020/12/19 13:56:24;;;;;;;5.32;2.47;;;10.90;99.90;;;;;;6216777;23;20343;-86
2020/12/19 13:58:50;;;;;;;4.68;2.15;;;10.70;99.90;;;;;;6216611;23;20092;-87
2020/12/19 14:01:16;;;;;;;4.40;2.25;;;10.50;99.90;;;;;;6213417;23;20007;-87
2020/12/19 14:03:45;;;;;;;6.40;2.40;;;10.30;99.90;;;;;;6207001;23;20467;-88
2020/12/19 14:06:12;;;;;;;5.37;2.30;;;10.20;99.90;;;;;;6212673;23;20418;-88
2020/12/19 14:08:38;;;;;;;4.30;2.10;;;10.20;99.90;;;;;;6212123;23;20383;-87
2020/12/19 14:11:03;;;;;;;6.23;1.93;;;10.20;99.90;;;;;;6212610;23;20001;-88
2020/12/19 14:13:29;;;;;;;4.70;2.20;;;10.20;99.90;;;;;;6213142;23;20005;-88
2020/12/19 14:15:55;;;;;;;4.43;2.10;;;10.30;99.90;;;;;;6213897;23;20327;-87
2020/12/19 14:18:20;;;;;;;5.45;2.55;;;10.40;99.90;;;;;;6214247;23;20328;-87
2020/12/19 14:20:46;;;;;;;5.25;2.70;;;10.50;99.90;;;;;;6213105;23;20001;-87
2020/12/19 14:23:12;;;;;;;4.73;2.20;;;10.50;99.90;;;;;;6212200;23;20049;-87
2020/12/19 14:25:37;;;;;;;5.20;2.42;;;10.50;99.90;;;;;;6212048;23;20439;-87
2020/12/19 14:28:03;;;;;;;5.05;2.20;;;10.50;99.90;;;;;;6212091;23;20055;-85
2020/12/19 14:30:29;;;;;;;4.80;2.20;;;10.40;99.90;;;;;;6212419;23;20027;-86
2020/12/19 14:32:54;;;;;;;4.03;1.98;;;10.40;99.90;;;;;;6213616;23;20016;-87
2020/12/19 14:35:20;;;;;;;7.15;2.00;;;10.40;99.90;;;;;;6214541;23;20001;-87
2020/12/19 14:37:46;;;;;;;6.60;2.20;;;10.30;99.90;;;;;;6210493;23;20051;-87
2020/12/19 14:40:12;;;;;;;4.05;1.77;;;10.20;99.90;;;;;;6212338;23;20012;-88
2020/12/19 14:42:42;;;;;;;4.05;1.90;;;10.20;99.90;;;;;;6211822;23;20008;-87
2020/12/19 14:45:09;;;;;;;4.70;2.17;;;10.10;99.90;;;;;;6211407;23;20000;-88
2020/12/19 14:47:35;;;;;;;9.65;2.20;;;10.00;99.90;;;;;;6211741;23;20007;-88
2020/12/19 14:50:03;;;;;;;4.13;2.00;;;10.00;99.90;;;;;;6211393;23;20005;-87
2020/12/19 14:52:29;;;;;;;4.10;2.00;;;9.90;99.90;;;;;;6211747;23;20028;-88
2020/12/19 14:54:54;;;;;;;5.90;2.60;;;9.80;99.90;;;;;;6212804;23;20000;-88
2020/12/19 15:04:46;;;;;;;4.38;2.30;;;9.60;99.90;;;;;;6218423;23;20309;-93
2020/12/19 18:56:41;;;;;;;10.15;6.15;;;6.70;99.90;;;;;;6167068;23;20106;-88
2020/12/19 18:59:17;;;;;;;12.70;6.47;;;6.70;99.90;;;;;;6181896;23;20004;-88
2020/12/19 19:01:52;;;;;;;15.97;6.47;;;6.60;99.90;;;;;;6215206;23;20084;-91
2020/12/19 19:04:41;;;;;;;11.77;5.97;;;6.60;99.90;;;;;;6207247;23;20031;-89
2020/12/19 19:07:22;;;;;;;11.67;5.80;;;6.60;99.90;;;;;;6213305;23;20028;-90
2020/12/19 19:09:54;;;;;;;9.97;5.60;;;6.50;99.90;;;;;;6210223;23;20095;-90
2020/12/19 19:18:25;;;;;;;9.73;5.70;;;6.40;99.90;;;;;;6187981;23;19916;-87
2020/12/19 19:21:08;;;;;;;11.43;5.73;;;6.30;99.90;;;;;;6184774;23;20047;-89
2020/12/19 19:23:43;;;;;;;10.80;5.33;;;6.30;99.90;;;;;;6218927;23;20009;-88
2020/12/19 19:30:23;;;;;;;9.50;5.30;;;6.40;99.90;;;;;;6095644;23;20083;-88
2020/12/19 19:34:08;;;;;;;11.13;5.87;;;6.40;99.90;;;;;;6212246;23;20082;-88
2020/12/19 19:36:13;;;;;;;11.00;5.80;;;6.40;99.90;;;;;;6205869;23;20023;-91
2020/12/19 19:38:43;;;;;;;10.47;6.17;;;6.30;99.90;;;;;;6217880;23;20020;-90
2020/12/19 19:41:39;;;;;;;10.83;6.03;;;6.40;99.90;;;;;;6231184;22;20012;-93
2020/12/19 19:44:48;;;;;;;11.60;5.77;;;6.40;99.90;;;;;;6236947;22;20023;-93
2020/12/19 20:02:57;;;;;;;12.97;6.90;;;6.30;99.90;;;;;;6187834;23;20025;-90
2020/12/19 20:05:26;;;;;;;14.47;7.40;;;6.30;99.90;;;;;;6160472;23;20017;-92
2020/12/19 20:08:16;;;;;;;11.07;6.33;;;6.30;99.90;;;;;;6160774;23;20450;-90
2020/12/19 20:10:55;;;;;;;12.83;6.50;;;6.30;99.90;;;;;;6186661;23;20019;-91
2020/12/19 20:13:38;;;;;;;10.83;6.37;;;6.30;99.90;;;;;;6159265;23;20036;-90
2020/12/19 20:16:37;;;;;;;15.13;6.35;;;6.30;99.90;;;;;;6186560;23;20459;-90
2020/12/19 20:22:19;;;;;;;10.43;6.00;;;6.30;99.90;;;;;;6124809;23;20069;-88
2020/12/19 20:24:58;;;;;;;16.60;7.03;;;6.30;99.90;;;;;;6128042;23;20068;-92
2020/12/19 20:27:59;;;;;;;12.60;6.00;;;6.20;99.90;;;;;;6156097;23;20043;-92
2020/12/19 20:30:57;;;;;;;13.20;6.97;;;6.20;99.90;;;;;;6162683;23;20013;-92
2020/12/19 20:36:18;;;;;;;11.40;6.50;;;6.10;99.90;;;;;;6154134;23;20009;-90
2020/12/19 20:39:16;;;;;;;12.17;6.07;;;6.00;99.90;;;;;;6183883;23;20016;-90
2020/12/19 20:41:54;;;;;;;13.00;6.63;;;6.00;99.90;;;;;;6158543;23;20020;-91
2020/12/19 20:44:43;;;;;;;11.27;6.20;;;6.00;99.90;;;;;;6157118;23;20044;-91
2020/12/19 20:47:15;;;;;;;11.60;6.37;;;5.90;99.90;;;;;;6160495;23;20013;-93
2020/12/19 20:50:00;;;;;;;;;;;5.90;99.90;;;;;;6159204;23;20005;-91
2020/12/19 20:56:15;;;;;;;11.73;6.20;;;5.80;99.90;;;;;;6184623;23;20012;-91
2020/12/19 20:59:04;;;;;;;12.13;6.60;;;5.80;99.90;;;;;;6161096;23;20719;-92
2020/12/19 21:01:50;;;;;;;;;;;;;;;;;;;;;
2020/12/19 21:04:20;;;;;;;13.63;7.97;;;5.80;99.90;;;;;;6186283;23;20080;-91
2020/12/19 21:06:53;;;;;;;13.90;7.03;;;5.90;99.90;;;;;;6156045;23;20108;-88
2020/12/19 21:09:22;;;;;;;11.63;6.00;;;5.80;99.90;;;;;;6157622;23;20001;-88
2020/12/19 21:12:18;;;;;;;10.97;6.50;;;5.80;99.90;;;;;;6170397;23;20001;-94
2020/12/19 21:21:19;;;;;;;10.40;5.90;;;5.70;99.90;;;;;;6191161;23;20024;-93
2020/12/19 21:24:08;;;;;;;10.03;5.83;;;5.60;99.90;;;;;;6162149;23;20009;-90
2020/12/19 21:26:45;;;;;;;8.87;5.50;;;5.60;99.90;;;;;;6161180;23;20054;-90
2020/12/19 21:29:23;;;;;;;10.07;5.70;;;5.60;99.90;;;;;;6156310;23;20013;-91
2020/12/19 21:32:05;;;;;;;9.77;6.47;;;5.60;99.90;;;;;;6160425;23;20386;-92
2020/12/19 21:34:41;;;;;;;11.53;6.27;;;5.50;99.90;;;;;;6161676;23;20463;-92
2020/12/19 21:37:42;;;;;;;10.67;6.10;;;5.60;99.90;;;;;;6166743;23;20009;-92
2020/12/19 21:40:20;;;;;;;9.67;6.30;;;5.50;99.90;;;;;;6169481;23;20009;-92
2020/12/19 21:42:52;;;;;;;10.00;5.53;;;5.50;99.90;;;;;;6172192;23;20034;-92
2020/12/19 21:45:24;;;;;;;9.68;5.65;;;5.50;99.90;;;;;;6164805;23;20020;-93
2020/12/19 21:47:50;;;;;;;8.25;5.45;;;5.50;99.90;;;;;;6162524;23;20005;-91
2020/12/19 21:50:19;;;;;;;11.67;6.20;;;5.50;99.90;;;;;;6161855;23;20073;-92
2020/12/19 21:52:45;;;;;;;10.27;5.73;;;5.50;99.90;;;;;;6162543;23;20005;-91
2020/12/19 21:55:14;;;;;;;9.53;6.00;;;5.50;99.90;;;;;;6188068;23;20041;-91
2020/12/19 21:57:45;;;;;;;9.50;5.67;;;5.50;99.90;;;;;;6162506;23;20012;-91
2020/12/19 22:00:17;;;;;;;9.03;5.90;;;5.50;99.90;;;;;;6162100;23;20005;-91
2020/12/19 22:02:43;;;;;;;9.18;5.90;;;5.50;99.90;;;;;;6161690;23;20009;-90
2020/12/19 22:05:10;;;;;;;11.70;6.00;;;5.50;99.90;;;;;;6161907;23;20238;-90
2020/12/19 22:07:37;;;;;;;10.13;6.50;;;5.50;99.90;;;;;;6162294;23;20005;-91
2020/12/19 22:10:13;;;;;;;8.30;5.20;;;5.50;99.90;;;;;;6162512;23;20001;-90
2020/12/19 22:12:40;;;;;;;11.57;5.63;;;5.50;99.90;;;;;;6162526;23;20012;-91
2020/12/19 22:15:07;;;;;;;9.83;5.93;;;5.60;99.90;;;;;;6161336;23;20051;-91
2020/12/19 22:17:34;;;;;;;18.80;6.30;;;5.60;99.90;;;;;;6162640;23;20009;-91
2020/12/19 22:20:00;;;;;;;10.40;5.87;;;5.60;99.90;;;;;;6161913;23;20013;-91
2020/12/19 22:22:28;;;;;;;11.70;6.00;;;5.60;99.90;;;;;;6161378;23;20100;-90
2020/12/19 22:24:55;;;;;;;9.70;5.90;;;5.50;99.90;;;;;;6162881;23;20028;-91
2020/12/19 22:27:29;;;;;;;9.50;6.03;;;5.60;99.90;;;;;;6157490;23;20399;-91
2020/12/19 22:30:03;;;;;;;11.43;5.73;;;5.60;99.90;;;;;;6164037;23;20107;-90
2020/12/19 22:32:39;;;;;;;12.17;5.93;;;5.60;99.90;;;;;;6157537;23;20395;-90
2020/12/19 22:35:06;;;;;;;9.50;5.30;;;5.70;99.90;;;;;;6164477;23;20005;-91
2020/12/19 22:37:33;;;;;;;10.37;5.77;;;5.70;99.90;;;;;;6162271;23;20317;-91
2020/12/19 22:40:03;;;;;;;9.63;6.10;;;5.70;99.90;;;;;;6164275;23;20043;-90
2020/12/19 22:42:30;;;;;;;10.97;5.83;;;5.70;99.90;;;;;;6165653;23;20040;-91
2020/12/19 22:44:57;;;;;;;9.77;5.90;;;5.60;99.90;;;;;;6165356;23;20015;-91
2020/12/19 22:47:24;;;;;;;9.97;5.47;;;5.60;99.90;;;;;;6164801;23;20076;-91
2020/12/19 22:49:51;;;;;;;9.07;5.43;;;5.60;99.90;;;;;;6164428;23;20016;-91
2020/12/19 22:52:17;;;;;;;10.60;5.90;;;5.50;99.90;;;;;;6164258;23;20087;-91
2020/12/19 22:54:46;;;;;;;10.07;5.83;;;5.50;99.90;;;;;;6163540;23;20036;-90
2020/12/19 22:57:16;;;;;;;9.80;6.00;;;5.50;99.90;;;;;;6165600;23;20013;-91
2020/12/19 22:59:45;;;;;;;12.97;6.57;;;5.50;99.90;;;;;;6163545;23;20009;-91
2020/12/19 23:02:12;;;;;;;12.70;6.47;;;5.60;99.90;;;;;;6163201;23;20009;-90
2020/12/19 23:04:44;;;;;;;11.23;6.10;;;5.50;99.90;;;;;;6163627;23;20005;-91
2020/12/19 23:07:18;;;;;;;10.32;5.63;;;5.50;99.90;;;;;;6164039;23;20008;-91
2020/12/19 23:09:51;;;;;;;10.63;5.97;;;5.50;99.90;;;;;;6164451;23;20008;-90
2020/12/19 23:12:21;;;;;;;10.43;5.60;;;5.50;99.90;;;;;;6156957;23;20431;-91
2020/12/19 23:14:48;;;;;;;9.97;5.60;;;5.50;99.90;;;;;;6164174;23;20016;-91
2020/12/19 23:17:21;;;;;;;9.50;5.93;;;5.50;99.90;;;;;;6159564;23;20455;-91
2020/12/19 23:19:47;;;;;;;10.97;6.33;;;5.50;99.90;;;;;;6163382;23;20013;-91
2020/12/19 23:22:14;;;;;;;10.47;6.20;;;5.40;99.90;;;;;;6162972;23;20019;-91
2020/12/19 23:24:46;;;;;;;10.57;6.27;;;5.40;99.90;;;;;;6164283;23;20077;-91
2020/12/19 23:27:13;;;;;;;9.87;5.73;;;5.40;99.90;;;;;;6164831;23;20001;-90
2020/12/19 23:29:40;;;;;;;9.47;6.17;;;5.40;99.90;;;;;;6163857;23;20068;-91
2020/12/19 23:32:07;;;;;;;12.30;6.47;;;5.40;99.90;;;;;;6164497;23;20062;-91
2020/12/19 23:34:34;;;;;;;11.57;6.13;;;5.30;99.90;;;;;;6164051;23;20289;-89
2020/12/19 23:37:05;;;;;;;9.53;5.63;;;5.40;99.90;;;;;;6164476;23;20009;-90
2020/12/19 23:39:34;;;;;;;10.80;6.30;;;5.40;99.90;;;;;;6163963;23;20005;-91
2020/12/19 23:42:00;;;;;;;9.93;6.30;;;5.30;99.90;;;;;;6164165;23;20012;-90
2020/12/19 23:44:26;;;;;;;10.03;6.10;;;5.20;99.90;;;;;;6163064;23;20332;-90
2020/12/19 23:46:57;;;;;;;10.50;6.30;;;5.30;99.90;;;;;;6164243;23;20088;-90
2020/12/19 23:49:35;;;;;;;10.70;5.80;;;5.20;99.90;;;;;;6163973;23;20008;-91
2020/12/19 23:52:07;;;;;;;8.80;6.03;;;5.20;99.90;;;;;;6164281;23;20084;-91
2020/12/19 23:54:46;;;;;;;11.47;5.83;;;5.20;99.90;;;;;;6164477;23;20698;-91
2020/12/19 23:57:16;;;;;;;12.33;6.20;;;5.20;99.90;;;;;;6164007;23;20009;-91
2020/12/19 23:59:53;;;;;;;9.80;6.63;;;5.20;99.90;;;;;;6164119;23;20019;-91
